createdAt,value
2022-11-20T00:04:31.467Z,25.63
2022-11-20T00:09:35.402Z,25.52
2022-11-20T00:14:37.866Z,23.00
2022-11-20T00:19:40.279Z,25.08
2022-11-20T00:24:44.066Z,21.27
2022-11-20T00:29:46.463Z,20.17
2022-11-20T00:34:49.003Z,17.95
2022-11-20T00:39:52.771Z,18.80
2022-11-20T00:44:55.195Z,16.55
2022-11-20T00:49:57.626Z,18.20
2022-11-20T00:55:01.413Z,16.50
2022-11-20T01:00:04.015Z,16.45
2022-11-20T01:05:06.488Z,19.10
2022-11-20T01:10:10.663Z,18.20
2022-11-20T01:15:13.089Z,18.10
2022-11-20T01:20:15.559Z,15.73
2022-11-20T01:25:19.286Z,17.85
2022-11-20T01:30:21.899Z,17.02
2022-11-20T01:35:24.354Z,18.37
2022-11-20T01:40:28.160Z,16.30
2022-11-20T01:46:00.570Z,17.00
2022-11-20T01:51:03.818Z,17.05
2022-11-20T01:56:11.313Z,18.45
2022-11-20T02:01:14.830Z,17.00
2022-11-20T02:11:21.136Z,17.33
2022-11-20T02:16:25.229Z,15.52
2022-11-20T02:21:32.118Z,14.82
2022-11-20T02:26:43.592Z,13.15
2022-11-20T02:31:49.336Z,15.25
2022-11-20T02:36:52.678Z,15.10
2022-11-20T02:41:57.763Z,14.32
2022-11-20T02:47:00.541Z,14.85
2022-11-20T02:52:02.978Z,14.33
2022-11-20T02:57:06.748Z,14.07
2022-11-20T03:02:09.344Z,15.20
2022-11-20T03:07:11.862Z,15.37
2022-11-20T03:12:15.780Z,14.57
2022-11-20T03:17:18.195Z,15.90
2022-11-20T03:22:20.652Z,12.43
2022-11-20T03:27:24.383Z,14.23
2022-11-20T03:32:26.798Z,13.80
2022-11-20T03:37:29.572Z,14.35
2022-11-20T03:42:48.545Z,15.70
2022-11-20T03:47:51.064Z,13.77
2022-11-20T03:52:53.489Z,13.73
2022-11-20T03:57:57.207Z,15.83
2022-11-20T04:03:00.115Z,13.60
2022-11-20T04:08:02.686Z,12.45
2022-11-20T04:13:06.590Z,13.97
2022-11-20T04:18:09.103Z,14.57
2022-11-20T04:23:11.551Z,12.20
2022-11-20T04:28:15.333Z,12.88
2022-11-20T04:33:17.829Z,13.07
2022-11-20T04:38:20.260Z,12.97
2022-11-20T04:43:23.993Z,13.55
2022-11-20T04:48:26.893Z,12.57
2022-11-20T04:53:29.439Z,13.10
2022-11-20T04:58:33.525Z,13.70
2022-11-20T05:03:41.039Z,13.10
2022-11-20T05:08:44.636Z,13.00
2022-11-20T05:13:48.672Z,12.57
2022-11-20T05:18:51.650Z,11.77
2022-11-20T05:23:54.290Z,12.10
2022-11-20T05:28:58.038Z,13.27
2022-11-20T05:34:00.583Z,12.43
2022-11-20T05:39:03.062Z,13.93
2022-11-20T05:44:06.884Z,12.23
2022-11-20T05:49:09.261Z,13.48
2022-11-20T05:54:11.662Z,12.57
2022-11-20T05:59:15.479Z,12.50
2022-11-20T06:04:17.829Z,13.70
2022-11-20T06:09:20.598Z,12.95
2022-11-20T06:14:24.779Z,13.93
2022-11-20T06:19:27.276Z,12.85
2022-11-20T06:24:29.724Z,14.13
2022-11-20T06:29:34.200Z,15.90
2022-11-20T06:34:36.784Z,14.80
2022-11-20T06:39:39.198Z,14.90
2022-11-20T06:44:42.981Z,15.57
2022-11-20T06:49:45.436Z,15.60
2022-11-20T06:54:47.828Z,15.75
2022-11-20T06:59:51.550Z,15.48
2022-11-20T07:04:54.032Z,16.58
2022-11-20T07:09:56.387Z,14.93
2022-11-20T07:15:00.132Z,16.30
2022-11-20T07:20:02.630Z,16.15
2022-11-20T07:25:05.495Z,16.67
2022-11-20T07:30:09.979Z,17.50
2022-11-20T07:35:12.494Z,16.63
2022-11-20T07:40:15.364Z,20.17
2022-11-20T07:45:19.413Z,16.38
2022-11-20T07:50:22.109Z,17.90
2022-11-20T07:55:24.465Z,17.03
2022-11-20T08:00:28.934Z,18.80
2022-11-20T08:05:31.426Z,21.00
2022-11-20T08:10:33.859Z,15.75
2022-11-20T08:15:38.080Z,14.32
2022-11-20T08:20:40.524Z,15.10
2022-11-20T08:25:42.932Z,19.30
2022-11-20T08:30:46.946Z,18.35
2022-11-20T08:35:49.422Z,15.63
2022-11-20T08:41:05.785Z,14.98
2022-11-20T08:46:09.612Z,14.80
2022-11-20T08:51:12.423Z,17.65
2022-11-20T08:56:14.881Z,17.83
2022-11-20T09:01:18.742Z,17.33
2022-11-20T09:06:21.318Z,17.88
2022-11-20T09:11:23.818Z,14.15
2022-11-20T09:16:27.634Z,17.95
2022-11-20T09:21:30.081Z,18.80
2022-11-20T09:26:32.522Z,17.63
2022-11-20T09:31:36.300Z,18.00
2022-11-20T09:36:38.665Z,17.13
2022-11-20T09:41:58.411Z,17.08
2022-11-20T09:47:04.811Z,17.27
2022-11-20T09:52:12.460Z,16.73
2022-11-20T09:57:17.025Z,15.63
2022-11-20T10:02:26.661Z,16.73
2022-11-20T10:07:33.080Z,16.13
2022-11-20T10:12:42.628Z,16.45
2022-11-20T10:18:04.418Z,14.65
2022-11-20T10:23:22.770Z,14.25
2022-11-20T10:28:34.581Z,15.73
2022-11-20T10:34:05.117Z,18.50
2022-11-20T10:39:08.607Z,16.85
2022-11-20T10:44:13.555Z,16.08
2022-11-20T10:49:18.662Z,16.95
2022-11-20T10:54:24.405Z,16.40
2022-11-20T10:59:33.920Z,15.88
2022-11-20T11:04:39.969Z,14.27
2022-11-20T11:09:45.307Z,16.80
2022-11-20T11:14:49.099Z,21.20
2022-11-20T11:20:03.662Z,16.65
2022-11-20T11:25:06.385Z,17.48
2022-11-20T11:30:15.943Z,17.83
2022-11-20T11:35:27.341Z,16.13
2022-11-20T11:40:31.899Z,16.42
2022-11-20T11:45:34.447Z,15.45
2022-11-20T11:50:38.268Z,15.32
2022-11-20T11:55:44.306Z,12.13
2022-11-20T12:00:49.804Z,15.32
2022-11-20T12:05:58.049Z,14.70
2022-11-20T12:11:05.487Z,12.85
2022-11-20T12:16:12.123Z,14.32
2022-11-20T12:21:25.430Z,14.05
2022-11-20T12:26:32.567Z,14.80
2022-11-20T12:31:42.802Z,15.05
2022-11-20T12:36:51.594Z,13.70
2022-11-20T12:42:21.706Z,15.40
2022-11-20T12:47:30.564Z,15.10
2022-11-20T12:52:41.032Z,13.05
2022-11-20T12:57:48.479Z,13.85
2022-11-20T13:03:14.699Z,13.85
2022-11-20T13:08:21.586Z,13.27
2022-11-20T13:13:26.012Z,13.55
2022-11-20T13:18:28.481Z,13.00
2022-11-20T13:23:32.235Z,13.15
2022-11-20T13:28:34.800Z,13.57
2022-11-20T13:33:38.124Z,13.27
2022-11-20T13:38:48.430Z,12.45
2022-11-20T13:43:51.007Z,14.00
2022-11-20T13:48:55.323Z,14.15
2022-11-20T13:54:09.142Z,13.95
2022-11-20T13:59:15.201Z,15.18
2022-11-20T14:04:20.165Z,15.00
2022-11-20T14:09:31.101Z,16.13
2022-11-20T14:14:36.807Z,17.35
2022-11-20T14:19:40.929Z,16.30
2022-11-20T14:24:44.712Z,16.02
2022-11-20T14:29:48.473Z,18.73
2022-11-20T14:34:51.781Z,18.08
2022-11-20T14:39:56.302Z,19.17
2022-11-20T14:44:59.770Z,20.50
2022-11-20T14:50:07.384Z,18.13
2022-11-20T14:55:26.603Z,19.85
2022-11-20T15:00:29.713Z,19.15
2022-11-20T15:05:46.626Z,19.85
2022-11-20T15:10:51.531Z,20.08
2022-11-20T15:15:55.933Z,19.52
2022-11-20T15:20:59.604Z,21.77
2022-11-20T15:31:05.952Z,23.25
2022-11-20T15:36:08.495Z,22.75
2022-11-20T15:41:11.491Z,30.08
2022-11-20T15:46:16.632Z,25.23
2022-11-20T15:51:23.464Z,25.80
2022-11-20T15:56:26.158Z,28.10
2022-11-20T16:01:29.936Z,27.23
2022-11-20T16:06:34.310Z,34.08
2022-11-20T16:11:37.474Z,26.63
2022-11-20T16:16:42.336Z,28.85
2022-11-20T16:21:44.858Z,28.92
2022-11-20T16:26:47.271Z,29.05
2022-11-20T16:31:51.018Z,29.52
2022-11-20T16:36:53.437Z,32.97
2022-11-20T16:41:55.802Z,31.73
2022-11-20T16:46:59.540Z,33.88
2022-11-20T16:52:02.012Z,33.88
2022-11-20T16:57:04.479Z,35.28
2022-11-20T17:02:08.312Z,33.95
2022-11-20T17:07:10.867Z,37.63
2022-11-20T17:12:13.261Z,35.80
2022-11-20T17:17:16.973Z,37.13
2022-11-20T17:22:19.336Z,36.85
2022-11-20T17:27:21.678Z,35.25
2022-11-20T17:32:26.575Z,37.28
2022-11-20T17:37:29.064Z,38.25
2022-11-20T17:42:36.778Z,40.35
2022-11-20T17:47:40.692Z,38.67
2022-11-20T17:52:43.096Z,38.72
2022-11-20T17:57:56.642Z,36.63
2022-11-20T18:03:00.626Z,39.97
2022-11-20T18:08:03.061Z,41.78
2022-11-20T18:13:05.455Z,41.72
2022-11-20T18:18:09.264Z,45.10
2022-11-20T18:23:11.782Z,40.97
2022-11-20T18:28:14.235Z,43.03
2022-11-20T18:33:18.661Z,44.05
2022-11-20T18:38:21.102Z,48.42
2022-11-20T18:43:41.455Z,46.57
2022-11-20T18:48:45.298Z,46.10
2022-11-20T18:53:47.859Z,49.85
2022-11-20T18:58:50.213Z,51.15
2022-11-20T19:03:53.962Z,48.10
2022-11-20T19:08:56.333Z,50.83
2022-11-20T19:13:58.825Z,48.72
2022-11-20T19:19:03.533Z,45.08
2022-11-20T19:24:06.349Z,44.28
2022-11-20T19:29:08.918Z,43.30
2022-11-20T19:34:12.878Z,42.97
2022-11-20T19:39:15.424Z,40.20
2022-11-20T19:44:19.398Z,39.47
2022-11-20T19:49:23.557Z,35.65
2022-11-20T19:54:26.181Z,33.65
2022-11-20T19:59:28.554Z,35.17
2022-11-20T20:04:32.423Z,30.42
2022-11-20T20:09:35.381Z,30.48
2022-11-20T20:14:37.759Z,29.83
2022-11-20T20:19:41.538Z,37.30
2022-11-20T20:29:46.201Z,30.23
2022-11-20T20:34:49.943Z,39.30
2022-11-20T20:39:52.678Z,34.38
2022-11-20T20:45:11.073Z,32.57
2022-11-20T20:50:14.935Z,33.78
2022-11-20T20:55:17.297Z,32.80
2022-11-20T21:00:19.884Z,32.45
2022-11-20T21:05:23.719Z,34.15
2022-11-20T21:10:26.125Z,35.58
2022-11-20T21:15:28.577Z,32.92
2022-11-20T21:20:49.581Z,37.00
2022-11-20T21:25:52.281Z,35.35
2022-11-20T21:30:54.687Z,34.33
2022-11-20T21:36:00.847Z,36.35
2022-11-20T21:41:03.548Z,35.55
2022-11-20T21:46:07.268Z,39.47
2022-11-20T21:56:17.730Z,37.78
2022-11-20T22:01:23.464Z,39.25
2022-11-20T22:06:27.123Z,37.47
2022-11-20T22:11:31.241Z,40.42
2022-11-20T22:16:34.233Z,36.42
2022-11-20T22:21:36.777Z,38.07
2022-11-20T22:26:40.959Z,37.47
2022-11-20T22:31:43.524Z,38.55
2022-11-20T22:36:45.866Z,40.95
2022-11-20T22:41:49.634Z,41.58
2022-11-20T22:51:54.346Z,40.47
2022-11-20T22:56:58.180Z,39.08
2022-11-20T23:02:00.596Z,41.08
2022-11-20T23:07:03.010Z,43.72
2022-11-20T23:12:07.271Z,44.03
2022-11-20T23:17:09.733Z,43.80
2022-11-20T23:22:12.156Z,45.28
2022-11-20T23:27:18.938Z,46.50
2022-11-20T23:32:22.206Z,46.30
2022-11-20T23:37:24.601Z,49.92
2022-11-20T23:42:28.347Z,45.50
2022-11-20T23:47:30.743Z,49.75
2022-11-20T23:52:33.184Z,47.22
2022-11-20T23:57:37.015Z,44.20
